Niigata Airport
RJSN : now visible

Airfield :











YOU CAN JOIN US ON...

 
LOGIN :

Register | Disclaimer

   EN    FR    IT 

 









Legend :    VFR   Marginal VFR   IFR   Intensive IFR   Very Intensive IFR
Visi :
Ceiling :
>= 8 km
>= 3000ft
5 to 8 km
1000 to 3000 ft
1500m to 5 km
500 to 1000 ft
800 to 1500m
200 to 500 ft
< 800m
< 200 ft
Symbols :   Thunderstorms  Fog  Heavy snow  Heavy precipitations  Wind > 20 kt






- Airport Elevation : 29 ft
- IATA code : KIJ


RJSN - Niigata

CURRENT METAR :
  • 171200Z 17004KT 9999 FEW030 SCT080 BKN120 09/03 Q1026

EXPIRED METARs :
  • 171100Z 11004KT 9999 FEW030 SCT050 BKN120 09/03 Q1026
  • 171000Z 12005KT 9999 FEW030 SCT050 BKN130 09/03 Q1026

TAF TAF RJSN
Valid from the 17 at 12:00 until the 18 at 18:00 UTC


171105Z 1712/1818 12006KT 9999 FEW030
BECMG 1803/1806 22010KT
BECMG 1809/1812 28014KT
TEMPO 1809/1815 3000 SHRA BR



MET'MAP, your aeronautical weather chart ! - Copyright ORBIFLY December 2007 - Disclaimer

ORBIFLY MET'MAP TEAM :

Programming & Development : Alexandra Zaïnal
Concept & Development : Baudouin d'Aumeries
Co-Development & Prog : Marc-Olivier Méhu
Technical & hardware support : Manuel Goepfert

Contact : metmap@orbifly.com




SOURCES & CREDITS :

   NOAA       Earth
Advisory